TimeCDT,TemperatureF,Dew PointF,Humidity,Sea Level PressureIn,VisibilityMPH,Wind Direction,Wind SpeedMPH,Gust SpeedMPH,PrecipitationIn,Events,Conditions,WindDirDegrees,DateUTC
12:56 AM,48.9,43.0,80,29.22,10.0,WSW,10.4,-,N/A,,Mostly Cloudy,240,2012-10-18 05:56:00
1:16 AM,48.2,42.8,82,29.22,10.0,WSW,9.2,-,N/A,,Mostly Cloudy,250,2012-10-18 06:16:00
1:56 AM,48.0,42.1,80,29.21,10.0,WSW,9.2,-,N/A,,Overcast,250,2012-10-18 06:56:00
2:56 AM,46.9,41.0,80,29.21,10.0,WSW,8.1,-,N/A,,Overcast,250,2012-10-18 07:56:00
3:56 AM,46.9,41.0,80,29.20,10.0,WSW,11.5,-,N/A,,Overcast,250,2012-10-18 08:56:00
5:56 AM,46.0,41.0,83,29.18,10.0,SW,5.8,-,N/A,,Overcast,230,2012-10-18 10:56:00
6:56 AM,45.0,41.0,86,29.19,10.0,SW,5.8,-,N/A,,Overcast,220,2012-10-18 11:56:00
7:24 AM,44.6,41.0,87,29.18,10.0,SW,6.9,-,N/A,,Overcast,230,2012-10-18 12:24:00
7:56 AM,45.0,41.0,86,29.18,10.0,SW,3.5,-,N/A,,Overcast,220,2012-10-18 12:56:00
8:13 AM,44.6,41.0,87,29.18,10.0,SSW,4.6,-,N/A,,Overcast,210,2012-10-18 13:13:00
8:53 AM,44.6,41.0,87,29.19,10.0,SSW,6.9,-,N/A,,Overcast,200,2012-10-18 13:53:00
9:56 AM,46.9,39.9,77,29.19,10.0,SSW,4.6,-,N/A,,Overcast,210,2012-10-18 14:56:00
11:18 AM,46.4,42.8,87,29.20,2.5,South,6.9,-,N/A,,Overcast,190,2012-10-18 16:18:00
11:54 AM,46.4,44.6,93,29.20,2.5,SSW,5.8,-,0.00,,Overcast,210,2012-10-18 16:54:00
11:56 AM,46.0,43.0,89,29.21,2.5,SSW,6.9,-,0.00,,Overcast,210,2012-10-18 16:56:00
12:14 PM,46.4,44.6,93,29.20,10.0,South,4.6,-,N/A,,Overcast,190,2012-10-18 17:14:00
12:35 PM,46.4,44.6,93,29.21,10.0,South,6.9,-,N/A,,Overcast,190,2012-10-18 17:35:00
12:49 PM,46.4,42.8,87,29.21,10.0,SSW,5.8,-,N/A,,Overcast,200,2012-10-18 17:49:00
12:56 PM,48.0,43.0,83,29.22,10.0,South,5.8,-,N/A,,Overcast,190,2012-10-18 17:56:00
1:56 PM,48.0,41.0,77,29.23,10.0,South,4.6,-,N/A,,Overcast,180,2012-10-18 18:56:00
2:05 PM,48.2,41.0,76,29.22,10.0,South,3.5,-,N/A,,Overcast,190,2012-10-18 19:05:00
2:21 PM,48.2,42.8,82,29.23,10.0,SE,5.8,-,N/A,,Overcast,130,2012-10-18 19:21:00
2:28 PM,46.4,42.8,87,29.23,10.0,SE,4.6,-,N/A,,Overcast,130,2012-10-18 19:28:00
2:56 PM,46.9,42.1,83,29.25,10.0,Calm,Calm,-,0.01,Rain,Light Rain,0,2012-10-18 19:56:00
3:56 PM,46.9,42.1,83,29.28,10.0,SSW,6.9,-,N/A,,Overcast,200,2012-10-18 20:56:00
4:56 PM,46.0,42.1,86,29.30,9.0,SW,4.6,-,N/A,,Overcast,220,2012-10-18 21:56:00
5:44 PM,46.4,42.8,87,29.30,10.0,WNW,3.5,-,0.01,,Overcast,300,2012-10-18 22:44:00
5:56 PM,45.0,43.0,93,29.32,7.0,Calm,Calm,-,0.01,Rain,Light Rain,0,2012-10-18 22:56:00
6:42 PM,44.6,42.8,93,29.32,10.0,Calm,Calm,-,0.00,,Overcast,0,2012-10-18 23:42:00
6:56 PM,45.0,42.1,90,29.34,10.0,Calm,Calm,-,0.00,,Overcast,0,2012-10-18 23:56:00
7:41 PM,42.8,39.2,87,29.34,1.8,Calm,Calm,-,N/A,,Scattered Clouds,0,2012-10-19 00:41:00
7:51 PM,42.8,41.0,93,29.34,8.0,Calm,Calm,-,N/A,,Mostly Cloudy,0,2012-10-19 00:51:00
7:56 PM,41.0,41.0,100,29.36,8.0,Calm,Calm,-,N/A,,Mostly Cloudy,0,2012-10-19 00:56:00
8:17 PM,41.0,39.2,93,29.35,9.0,Calm,Calm,-,N/A,,Overcast,0,2012-10-19 01:17:00
8:31 PM,42.8,41.0,93,29.35,10.0,Calm,Calm,-,N/A,,Overcast,0,2012-10-19 01:31:00
8:56 PM,44.1,42.1,93,29.37,10.0,Calm,Calm,-,N/A,,Overcast,0,2012-10-19 01:56:00
9:56 PM,42.1,41.0,96,29.38,8.0,Calm,Calm,-,N/A,,Overcast,0,2012-10-19 02:56:00
10:56 PM,43.0,41.0,93,29.39,10.0,Calm,Calm,-,N/A,,Overcast,0,2012-10-19 03:56:00
11:56 PM,43.0,42.1,97,29.40,9.0,Calm,Calm,-,N/A,,Overcast,0,2012-10-19 04:56:00